Terminal Aerodrome Forecast
Issued by NWS Twin Cities, MN

Home | Current Version | Previous Version | Graphics & Text | Print | Product List | Glossary On
Versions: 1 2 3 4 5 6 7 8 9 10 11 12 13 14 15 16 17 18 19 20 21 22
438
FTUS43 KMPX 192337
TAFEAU
TAF
KEAU 192337Z 2000/2024 17004KT 6SM BR SCT015 OVC050
     FM200200 15003KT 3SM BR OVC015
     FM200400 13003KT 2SM -RA BR OVC008
     FM200800 11005KT 1SM -RA BR OVC003
     FM201800 12005KT 3SM BR OVC005=

USA.gov is the U.S. government's official web portal to all federal, state and local government web resources and services.